createdAt,value
2019-04-29T00:00:50.432Z,13.10
2019-04-29T00:03:22.884Z,13.10
2019-04-29T00:05:53.703Z,13.10
2019-04-29T00:08:24.269Z,13.10
2019-04-29T00:10:54.597Z,13.00
2019-04-29T00:13:26.494Z,13.00
2019-04-29T00:16:31.119Z,13.00
2019-04-29T00:19:38.659Z,13.00
2019-04-29T00:22:09.000Z,13.00
2019-04-29T00:24:39.357Z,13.00
2019-04-29T00:27:09.703Z,13.00
2019-04-29T00:29:40.320Z,13.00
2019-04-29T00:32:10.931Z,13.10
2019-04-29T00:34:41.312Z,13.00
2019-04-29T00:37:26.161Z,13.00
2019-04-29T00:40:19.900Z,13.00
2019-04-29T00:43:00.273Z,13.00
2019-04-29T00:45:32.617Z,13.00
2019-04-29T00:48:03.009Z,13.00
2019-04-29T00:50:33.341Z,13.00
2019-04-29T00:53:03.740Z,13.00
2019-04-29T00:55:34.560Z,13.00
2019-04-29T00:58:04.954Z,13.00
2019-04-29T01:00:40.375Z,13.00
2019-04-29T01:03:10.970Z,13.00
2019-04-29T01:05:41.502Z,13.00
2019-04-29T01:08:11.859Z,13.10
2019-04-29T01:10:42.321Z,13.00
2019-04-29T01:13:13.245Z,13.00
2019-04-29T01:15:47.065Z,13.00
2019-04-29T01:18:17.821Z,13.00
2019-04-29T01:20:48.305Z,13.10
2019-04-29T01:23:18.693Z,13.10
2019-04-29T01:25:52.491Z,13.00
2019-04-29T01:28:28.700Z,13.00
2019-04-29T01:31:07.567Z,13.00
2019-04-29T01:33:38.068Z,13.00
2019-04-29T01:36:32.346Z,13.00
2019-04-29T01:39:04.745Z,13.00
2019-04-29T01:41:46.369Z,13.00
2019-04-29T01:44:17.383Z,13.00
2019-04-29T01:46:48.878Z,13.00
2019-04-29T01:49:19.406Z,13.00
2019-04-29T01:51:50.951Z,13.00
2019-04-29T01:54:21.785Z,13.00
2019-04-29T01:56:52.252Z,13.00
2019-04-29T01:59:22.648Z,13.00
2019-04-29T02:01:53.283Z,13.00
2019-04-29T02:04:23.713Z,13.00
2019-04-29T02:06:54.605Z,13.00
2019-04-29T02:09:32.417Z,13.00
2019-04-29T02:12:03.190Z,13.00
2019-04-29T02:14:33.621Z,13.00
2019-04-29T02:17:05.431Z,13.00
2019-04-29T02:19:36.414Z,13.00
2019-04-29T02:22:22.604Z,13.00
2019-04-29T02:24:57.303Z,13.00
2019-04-29T02:27:28.939Z,13.00
2019-04-29T02:29:59.387Z,13.00
2019-04-29T02:32:30.045Z,13.00
2019-04-29T02:35:00.587Z,13.00
2019-04-29T02:37:35.079Z,13.00
2019-04-29T02:40:29.273Z,13.00
2019-04-29T02:43:05.204Z,13.00
2019-04-29T02:45:37.653Z,13.00
2019-04-29T02:48:09.652Z,13.00
2019-04-29T02:50:40.497Z,13.00
2019-04-29T02:53:10.971Z,13.00
2019-04-29T02:55:46.284Z,13.00
2019-04-29T02:58:44.576Z,13.00
2019-04-29T03:01:39.703Z,13.00
2019-04-29T03:04:14.552Z,13.00
2019-04-29T03:06:45.141Z,12.90
2019-04-29T03:09:16.077Z,12.90
2019-04-29T03:11:46.474Z,12.90
2019-04-29T03:14:17.126Z,12.90
2019-04-29T03:16:47.637Z,12.90
2019-04-29T03:19:23.307Z,12.90
2019-04-29T03:21:56.339Z,12.90
2019-04-29T03:24:26.818Z,12.90
2019-04-29T03:26:57.342Z,12.90
2019-04-29T03:29:27.789Z,12.90
2019-04-29T03:31:59.355Z,12.90
2019-04-29T03:34:29.966Z,12.90
2019-04-29T03:37:00.376Z,12.90
2019-04-29T03:39:31.207Z,13.00
2019-04-29T03:42:07.407Z,13.00
2019-04-29T03:44:37.591Z,13.00
2019-04-29T03:47:08.184Z,13.00
2019-04-29T03:49:40.163Z,13.00
2019-04-29T03:52:10.584Z,13.10
2019-04-29T03:54:41.152Z,13.10
2019-04-29T03:57:13.204Z,13.10
2019-04-29T03:59:44.105Z,13.10
2019-04-29T04:02:30.070Z,13.10
2019-04-29T04:05:18.510Z,13.10
2019-04-29T04:07:55.654Z,13.20
2019-04-29T04:10:26.220Z,13.20
2019-04-29T04:12:56.611Z,13.20
2019-04-29T04:15:27.048Z,13.20
2019-04-29T04:18:05.485Z,13.30
2019-04-29T04:20:36.145Z,13.30
2019-04-29T04:23:06.464Z,13.30
2019-04-29T04:25:37.078Z,13.30
2019-04-29T04:28:08.761Z,13.40
2019-04-29T04:30:41.149Z,13.40
2019-04-29T04:33:11.501Z,13.40
2019-04-29T04:35:41.905Z,13.40
2019-04-29T04:38:12.237Z,13.50
2019-04-29T04:40:50.950Z,13.50
2019-04-29T04:43:21.268Z,13.50
2019-04-29T04:45:51.679Z,13.50
2019-04-29T04:48:23.835Z,13.50
2019-04-29T04:50:54.228Z,13.50
2019-04-29T04:53:24.557Z,13.50
2019-04-29T04:55:57.079Z,13.60
2019-04-29T04:58:27.436Z,13.60
2019-04-29T05:00:58.790Z,13.60
2019-04-29T05:03:29.123Z,13.60
2019-04-29T05:05:59.521Z,13.70
2019-04-29T05:08:30.236Z,13.70
2019-04-29T05:11:01.547Z,13.70
2019-04-29T05:13:31.972Z,13.80
2019-04-29T05:16:02.466Z,13.80
2019-04-29T05:18:32.858Z,13.80
2019-04-29T05:21:04.598Z,13.90
2019-04-29T05:23:34.947Z,13.90
2019-04-29T05:26:05.275Z,14.00
2019-04-29T05:28:35.633Z,14.00
2019-04-29T05:31:06.086Z,14.10
2019-04-29T05:33:36.432Z,14.10
2019-04-29T05:36:18.591Z,14.10
2019-04-29T05:39:05.115Z,14.20
2019-04-29T05:41:36.383Z,14.20
2019-04-29T05:44:21.837Z,14.20
2019-04-29T05:46:55.971Z,14.30
2019-04-29T05:49:31.599Z,14.30
2019-04-29T05:52:20.037Z,14.50
2019-04-29T05:54:50.468Z,14.50
2019-04-29T05:57:25.440Z,14.70
2019-04-29T05:59:52.823Z,14.90
2019-04-29T06:02:24.094Z,15.00
2019-04-29T06:04:55.290Z,15.00
2019-04-29T06:07:26.953Z,15.10
2019-04-29T06:09:57.590Z,15.30
2019-04-29T06:12:27.979Z,15.50
2019-04-29T06:14:58.367Z,15.60
2019-04-29T06:17:29.157Z,15.70
2019-04-29T06:20:00.523Z,15.80
2019-04-29T06:22:30.902Z,15.90
2019-04-29T06:25:01.257Z,16.00
2019-04-29T06:27:33.342Z,16.10
2019-04-29T06:30:04.960Z,16.30
2019-04-29T06:32:35.652Z,16.50
2019-04-29T06:35:10.545Z,16.60
2019-04-29T06:37:39.878Z,16.60
2019-04-29T06:40:10.646Z,16.60
2019-04-29T06:42:41.462Z,16.60
2019-04-29T06:45:12.464Z,16.70
2019-04-29T06:47:42.835Z,16.80
2019-04-29T06:50:13.376Z,16.80
2019-04-29T06:52:52.183Z,16.90
2019-04-29T06:55:32.150Z,17.00
2019-04-29T06:58:07.770Z,17.10
2019-04-29T07:00:38.929Z,17.30
2019-04-29T07:03:15.875Z,17.40
2019-04-29T07:05:56.437Z,17.50
2019-04-29T07:08:31.289Z,17.70
2019-04-29T07:11:36.498Z,17.70
2019-04-29T07:14:24.151Z,17.60
2019-04-29T07:17:05.570Z,17.50
2019-04-29T07:19:35.896Z,17.50
2019-04-29T07:22:10.016Z,17.40
2019-04-29T07:24:57.230Z,17.30
2019-04-29T07:27:57.354Z,17.20
2019-04-29T07:30:29.627Z,17.20
2019-04-29T07:33:00.045Z,17.30
2019-04-29T07:35:30.441Z,17.30
2019-04-29T07:38:04.457Z,17.40
2019-04-29T07:40:33.298Z,17.50
2019-04-29T07:43:07.762Z,18.00
2019-04-29T07:45:53.686Z,18.80
2019-04-29T07:48:24.110Z,19.50
2019-04-29T07:51:39.526Z,20.00
2019-04-29T07:54:11.068Z,20.60
2019-04-29T07:56:42.449Z,22.40
2019-04-29T07:59:12.457Z,24.00
2019-04-29T08:01:43.158Z,25.50
2019-04-29T08:04:13.553Z,26.90
2019-04-29T08:06:44.945Z,28.10
2019-04-29T08:09:15.481Z,28.70
2019-04-29T08:11:53.405Z,29.40
2019-04-29T08:14:26.477Z,30.20
2019-04-29T08:16:56.804Z,31.00
2019-04-29T08:19:29.504Z,31.70
2019-04-29T08:21:59.557Z,32.30
2019-04-29T08:24:29.904Z,33.00
2019-04-29T08:27:01.323Z,33.60
2019-04-29T08:29:35.813Z,34.00
2019-04-29T08:32:06.458Z,34.50
2019-04-29T08:34:36.906Z,35.10
2019-04-29T08:37:07.260Z,35.50
2019-04-29T08:39:37.830Z,35.90
2019-04-29T08:48:17.785Z,36.20
2019-04-29T08:50:48.287Z,36.60
2019-04-29T08:53:19.590Z,36.90
2019-04-29T08:55:50.060Z,37.10
2019-04-29T08:58:21.402Z,37.20
2019-04-29T09:00:55.736Z,37.50
2019-04-29T09:03:24.414Z,37.80
2019-04-29T09:06:05.273Z,37.90
2019-04-29T09:11:48.033Z,38.30
2019-04-29T09:14:18.621Z,38.30
2019-04-29T09:16:49.027Z,38.40
2019-04-29T09:19:19.487Z,38.40
2019-04-29T09:21:53.042Z,38.40
2019-04-29T09:24:23.406Z,38.30
2019-04-29T09:27:04.997Z,38.30
2019-04-29T09:29:38.044Z,38.40
2019-04-29T09:32:08.472Z,38.60
2019-04-29T09:34:39.916Z,39.00
2019-04-29T09:37:10.228Z,38.90
2019-04-29T09:39:44.049Z,38.90
2019-04-29T09:42:32.137Z,39.20
2019-04-29T09:48:11.041Z,39.70
2019-04-29T09:50:41.927Z,39.90
2019-04-29T09:56:11.762Z,39.90
2019-04-29T09:58:43.065Z,39.80
2019-04-29T10:01:41.961Z,39.60
2019-04-29T10:04:26.533Z,39.30
2019-04-29T10:06:58.566Z,39.00
2019-04-29T10:09:29.326Z,39.00
2019-04-29T10:11:59.909Z,39.00
2019-04-29T10:14:31.124Z,38.90
2019-04-29T10:17:26.958Z,38.20
2019-04-29T10:20:16.347Z,37.90
2019-04-29T10:22:50.194Z,37.40
2019-04-29T10:25:18.961Z,37.20
2019-04-29T10:27:49.377Z,37.10
2019-04-29T10:30:21.249Z,37.10
2019-04-29T10:32:52.718Z,37.10
2019-04-29T10:35:26.227Z,36.70
2019-04-29T10:38:02.803Z,36.60
2019-04-29T10:40:48.118Z,36.30
2019-04-29T10:46:45.159Z,35.70
2019-04-29T10:49:27.115Z,35.30
2019-04-29T10:52:02.495Z,35.10
2019-04-29T10:54:31.225Z,34.80
2019-04-29T10:57:01.959Z,34.40
2019-04-29T10:59:35.912Z,34.00
2019-04-29T11:02:32.817Z,33.70
2019-04-29T11:05:23.126Z,33.60
2019-04-29T11:07:58.077Z,33.20
2019-04-29T11:10:30.337Z,32.80
2019-04-29T11:13:01.045Z,32.20
2019-04-29T11:15:37.961Z,31.80
2019-04-29T11:18:08.476Z,31.50
2019-04-29T11:20:38.753Z,31.40
2019-04-29T11:23:18.391Z,31.20
2019-04-29T11:26:10.819Z,31.10
2019-04-29T11:28:41.525Z,31.10
2019-04-29T11:31:14.454Z,31.10
2019-04-29T11:34:00.575Z,31.20
2019-04-29T11:36:30.925Z,31.20
2019-04-29T11:39:01.249Z,31.30
2019-04-29T11:41:33.640Z,31.30
2019-04-29T11:44:05.340Z,31.20
2019-04-29T11:46:35.654Z,31.10
2019-04-29T11:49:06.923Z,31.00
2019-04-29T11:51:55.931Z,30.80
2019-04-29T11:54:12.837Z,30.80
2019-04-29T11:56:43.386Z,30.60
2019-04-29T11:59:39.905Z,30.50
2019-04-29T12:02:45.545Z,30.40
2019-04-29T12:05:20.385Z,30.30
2019-04-29T12:07:51.828Z,30.30
2019-04-29T12:14:02.728Z,29.80
2019-04-29T12:16:57.025Z,29.80
2019-04-29T12:19:30.323Z,29.70
2019-04-29T12:22:04.885Z,29.40
2019-04-29T12:24:33.598Z,29.20
2019-04-29T12:27:19.870Z,29.00
2019-04-29T12:29:48.931Z,28.90
2019-04-29T12:32:51.031Z,29.00
2019-04-29T12:35:30.230Z,29.00
2019-04-29T12:38:39.814Z,28.60
2019-04-29T12:41:21.045Z,28.20
2019-04-29T12:47:30.917Z,27.50
2019-04-29T12:50:01.653Z,27.40
2019-04-29T12:52:32.622Z,27.30
2019-04-29T12:55:19.291Z,27.40
2019-04-29T12:57:35.185Z,27.30
2019-04-29T13:00:12.688Z,27.30
2019-04-29T13:03:16.707Z,27.30
2019-04-29T13:06:23.579Z,27.30
2019-04-29T13:08:52.956Z,27.40
2019-04-29T13:11:35.982Z,27.40
2019-04-29T13:14:01.409Z,27.20
2019-04-29T13:17:14.385Z,27.10
2019-04-29T13:20:00.756Z,26.90
2019-04-29T13:22:19.757Z,26.80
2019-04-29T13:24:50.513Z,26.60
2019-04-29T13:27:25.220Z,26.50
2019-04-29T13:29:52.845Z,26.50
2019-04-29T13:32:25.328Z,26.50
2019-04-29T13:35:00.247Z,26.60
2019-04-29T13:37:28.842Z,26.50
2019-04-29T13:39:59.122Z,26.50
2019-04-29T13:42:29.883Z,26.40
2019-04-29T13:45:07.853Z,26.40
2019-04-29T13:48:01.789Z,26.40
2019-04-29T13:50:40.165Z,26.50
2019-04-29T13:56:11.602Z,26.60
2019-04-29T13:58:35.887Z,26.60
2019-04-29T14:01:33.462Z,26.40
2019-04-29T14:06:57.043Z,26.20
2019-04-29T14:09:23.510Z,26.20
2019-04-29T14:12:02.095Z,26.30
2019-04-29T14:14:30.400Z,26.30
2019-04-29T14:17:24.136Z,26.30
2019-04-29T14:20:00.388Z,26.40
2019-04-29T14:22:32.849Z,26.40
2019-04-29T14:27:55.095Z,26.20
2019-04-29T14:30:37.818Z,25.90
2019-04-29T14:33:01.918Z,25.70
2019-04-29T14:35:39.224Z,25.60
2019-04-29T14:38:09.563Z,25.50
2019-04-29T14:40:42.830Z,25.20
2019-04-29T14:43:28.918Z,24.80
2019-04-29T14:48:52.938Z,24.30
2019-04-29T14:51:27.938Z,23.90
2019-04-29T14:53:57.171Z,23.60
2019-04-29T14:56:28.792Z,23.30
2019-04-29T14:59:06.624Z,23.10
2019-04-29T15:01:49.477Z,22.80
2019-04-29T15:04:28.980Z,22.60
2019-04-29T15:06:59.517Z,22.30
2019-04-29T15:09:30.098Z,22.20
2019-04-29T15:12:11.323Z,22.10
2019-04-29T15:15:02.896Z,21.90
2019-04-29T15:18:15.505Z,21.80
2019-04-29T15:20:44.668Z,21.80
2019-04-29T15:23:28.942Z,21.60
2019-04-29T15:25:58.505Z,21.40
2019-04-29T15:28:28.812Z,21.30
2019-04-29T15:30:59.129Z,21.30
2019-04-29T15:33:30.551Z,21.30
2019-04-29T15:36:03.449Z,21.30
2019-04-29T15:38:33.825Z,21.30
2019-04-29T15:41:05.770Z,21.40
2019-04-29T15:43:47.381Z,21.40
2019-04-29T15:46:11.313Z,21.30
2019-04-29T15:48:40.925Z,21.20
2019-04-29T15:51:13.885Z,21.30
2019-04-29T15:53:43.651Z,21.20
2019-04-29T15:56:28.185Z,21.20
2019-04-29T15:58:46.132Z,21.20
2019-04-29T16:01:18.105Z,21.20
2019-04-29T16:03:54.762Z,21.10
2019-04-29T16:06:43.553Z,21.00
2019-04-29T16:09:30.400Z,21.00
2019-04-29T16:12:27.540Z,21.00
2019-04-29T16:14:58.971Z,20.90
2019-04-29T16:17:31.942Z,20.80
2019-04-29T16:20:01.473Z,20.80
2019-04-29T16:22:36.101Z,20.80
2019-04-29T16:25:04.934Z,20.70
2019-04-29T16:27:41.001Z,20.70
2019-04-29T16:30:20.117Z,20.60
2019-04-29T16:32:50.429Z,20.60
2019-04-29T16:35:23.680Z,20.60
2019-04-29T16:37:53.289Z,20.60
2019-04-29T16:40:25.560Z,20.60
2019-04-29T16:43:04.291Z,20.60
2019-04-29T16:45:51.427Z,20.50
2019-04-29T16:48:22.303Z,20.40
2019-04-29T16:50:52.687Z,20.40
2019-04-29T16:53:23.073Z,20.30
2019-04-29T16:55:53.459Z,20.20
2019-04-29T16:58:23.931Z,20.10
2019-04-29T17:00:54.877Z,20.00
2019-04-29T17:03:25.309Z,19.90
2019-04-29T17:05:55.633Z,19.80
2019-04-29T17:08:34.900Z,19.80
2019-04-29T17:11:17.389Z,19.70
2019-04-29T17:13:46.877Z,19.60
2019-04-29T17:16:19.862Z,19.50
2019-04-29T17:18:50.853Z,19.50
2019-04-29T17:21:21.250Z,19.40
2019-04-29T17:23:52.703Z,19.30
2019-04-29T17:26:25.113Z,19.30
2019-04-29T17:29:11.973Z,19.30
2019-04-29T17:31:57.119Z,19.20
2019-04-29T17:34:56.117Z,19.20
2019-04-29T17:37:00.733Z,19.20
2019-04-29T17:39:31.603Z,19.10
2019-04-29T17:42:01.960Z,19.00
2019-04-29T17:44:44.200Z,18.90
2019-04-29T17:47:34.786Z,18.90
2019-04-29T17:50:46.197Z,18.80
2019-04-29T17:53:21.760Z,18.80
2019-04-29T17:56:01.453Z,18.70
2019-04-29T17:58:36.621Z,18.60
2019-04-29T18:01:43.385Z,18.60
2019-04-29T18:04:30.491Z,18.60
2019-04-29T18:07:21.945Z,18.60
2019-04-29T18:09:56.684Z,18.50
2019-04-29T18:12:26.991Z,18.50
2019-04-29T18:14:57.333Z,18.50
2019-04-29T18:17:31.491Z,18.40
2019-04-29T18:20:35.730Z,18.40
2019-04-29T18:23:19.287Z,18.30
2019-04-29T18:25:55.467Z,18.30
2019-04-29T18:28:26.032Z,18.30
2019-04-29T18:30:57.955Z,18.30
2019-04-29T18:33:30.265Z,18.20
2019-04-29T18:36:04.567Z,18.20
2019-04-29T18:38:35.077Z,18.20
2019-04-29T18:41:28.132Z,18.20
2019-04-29T18:44:02.875Z,18.10
2019-04-29T18:46:29.175Z,18.10
2019-04-29T18:49:03.348Z,18.00
2019-04-29T18:51:35.343Z,18.00
2019-04-29T18:54:06.226Z,18.00
2019-04-29T18:56:37.814Z,18.00
2019-04-29T18:59:10.149Z,18.00
2019-04-29T19:02:07.898Z,17.90
2019-04-29T19:04:53.406Z,17.80
2019-04-29T19:07:25.448Z,17.80
2019-04-29T19:09:56.435Z,17.80
2019-04-29T19:12:27.169Z,17.80
2019-04-29T19:15:04.506Z,17.70
2019-04-29T19:17:30.888Z,17.70
2019-04-29T19:20:02.008Z,17.70
2019-04-29T19:22:35.929Z,17.60
2019-04-29T19:25:11.731Z,17.50
2019-04-29T19:27:40.722Z,17.50
2019-04-29T19:30:14.285Z,17.50
2019-04-29T19:33:05.435Z,17.40
2019-04-29T19:35:38.569Z,17.30
2019-04-29T19:38:12.483Z,17.30
2019-04-29T19:40:42.525Z,17.20
2019-04-29T19:43:15.334Z,17.20
2019-04-29T19:45:48.515Z,17.10
2019-04-29T19:48:16.517Z,17.10
2019-04-29T19:50:50.056Z,17.00
2019-04-29T19:53:19.771Z,17.00
2019-04-29T19:56:02.225Z,16.90
2019-04-29T19:58:31.192Z,16.80
2019-04-29T20:01:10.842Z,16.80
2019-04-29T20:03:37.760Z,16.70
2019-04-29T20:06:21.548Z,16.60
2019-04-29T20:08:53.933Z,16.60
2019-04-29T20:11:19.032Z,16.50
2019-04-29T20:14:02.453Z,16.40
2019-04-29T20:16:54.647Z,16.40
2019-04-29T20:19:41.039Z,16.30
2019-04-29T20:22:11.786Z,16.20
2019-04-29T20:24:49.586Z,16.20
2019-04-29T20:27:15.180Z,16.20
2019-04-29T20:29:45.966Z,16.10
2019-04-29T20:32:17.024Z,16.10
2019-04-29T20:34:47.579Z,16.00
2019-04-29T20:37:19.718Z,16.00
2019-04-29T20:39:52.204Z,15.90
2019-04-29T20:42:25.933Z,15.90
2019-04-29T20:44:56.497Z,15.80
2019-04-29T20:47:37.586Z,15.80
2019-04-29T20:50:00.025Z,15.80
2019-04-29T20:52:40.593Z,15.70
2019-04-29T20:55:11.601Z,15.70
2019-04-29T20:57:42.140Z,15.60
2019-04-29T21:00:13.818Z,15.60
2019-04-29T21:02:45.463Z,15.50
2019-04-29T21:05:23.144Z,15.40
2019-04-29T21:07:49.217Z,15.40
2019-04-29T21:10:20.167Z,15.30
2019-04-29T21:13:19.882Z,15.30
2019-04-29T21:15:59.633Z,15.30
2019-04-29T21:18:30.260Z,15.20
2019-04-29T21:21:04.612Z,15.20
2019-04-29T21:23:35.384Z,15.10
2019-04-29T21:26:08.744Z,15.10
2019-04-29T21:28:41.790Z,15.00
2019-04-29T21:31:11.689Z,14.90
2019-04-29T21:33:42.953Z,14.90
2019-04-29T21:36:20.576Z,14.90
2019-04-29T21:39:12.873Z,14.80
2019-04-29T21:41:55.537Z,14.70
2019-04-29T21:44:27.897Z,14.80
2019-04-29T21:46:59.748Z,14.70
2019-04-29T21:49:30.031Z,14.70
2019-04-29T21:52:01.205Z,14.60
2019-04-29T21:54:31.705Z,14.60
2019-04-29T21:57:03.394Z,14.60
2019-04-29T21:59:35.735Z,14.60
2019-04-29T22:02:11.421Z,14.50
2019-04-29T22:04:41.158Z,14.50
2019-04-29T22:07:15.512Z,14.50
2019-04-29T22:09:50.002Z,14.40
2019-04-29T22:12:20.278Z,14.40
2019-04-29T22:14:53.666Z,14.30
2019-04-29T22:17:26.330Z,14.30
2019-04-29T22:19:57.397Z,14.30
2019-04-29T22:22:25.919Z,14.30
2019-04-29T22:24:57.659Z,14.20
2019-04-29T22:27:34.214Z,14.20
2019-04-29T22:30:02.066Z,14.20
2019-04-29T22:32:32.520Z,14.10
2019-04-29T22:35:02.861Z,14.10
2019-04-29T22:37:34.703Z,14.10
2019-04-29T22:40:06.465Z,14.00
2019-04-29T22:42:48.813Z,14.00
2019-04-29T22:45:19.330Z,14.00
2019-04-29T22:47:54.409Z,14.00
2019-04-29T22:50:21.595Z,13.90
2019-04-29T22:52:51.965Z,13.90
2019-04-29T22:55:22.283Z,13.90
2019-04-29T22:57:55.451Z,13.80
2019-04-29T23:00:32.624Z,13.80
2019-04-29T23:03:02.216Z,13.80
2019-04-29T23:05:32.145Z,13.80
2019-04-29T23:08:02.533Z,13.70
2019-04-29T23:10:32.860Z,13.70
2019-04-29T23:13:03.423Z,13.70
2019-04-29T23:15:35.698Z,13.70
2019-04-29T23:18:07.003Z,13.60
2019-04-29T23:20:52.487Z,13.60
2019-04-29T23:23:33.759Z,13.50
2019-04-29T23:26:04.174Z,13.50
2019-04-29T23:28:35.964Z,13.50
2019-04-29T23:31:07.329Z,13.40
2019-04-29T23:33:37.648Z,13.40
2019-04-29T23:36:09.724Z,13.40
2019-04-29T23:38:42.776Z,13.40
2019-04-29T23:41:15.312Z,13.40
2019-04-29T23:43:46.963Z,13.30
2019-04-29T23:46:17.319Z,13.30
2019-04-29T23:48:47.665Z,13.30
2019-04-29T23:51:17.967Z,13.30
2019-04-29T23:53:48.293Z,13.20
2019-04-29T23:56:20.533Z,13.20
2019-04-29T23:58:56.877Z,13.20
